Time;durP1;ratioP1;P1;durP2;ratioP2;P2;SDS_P1;SDS_P2;PMS_P1;PMS_P2;Temp;Humidity;BMP_temperature;BMP_pressure;BME280_temperature;BME280_humidity;BME280_pressure;Samples;Min_cycle;Max_cycle;Signal;HPM_P1;HPM_P2
2022/04/05 00:01:47;;;;;;;0.20;0.20;;;8.60;99.90;;;8.82;nan;100016.53;4975201;28;21256;-70
2022/04/05 00:04:14;;;;;;;0.20;0.20;;;8.50;99.90;;;8.84;nan;100017.22;4974626;28;20717;-70
2022/04/05 00:06:41;;;;;;;0.20;0.20;;;8.60;99.90;;;8.87;nan;100006.63;4987975;28;21177;-70
2022/04/05 00:09:08;;;;;;;0.20;0.20;;;8.60;99.90;;;8.94;nan;100007.81;4992745;28;20625;-70
2022/04/05 00:11:35;;;;;;;0.20;0.20;;;8.60;99.90;;;8.91;nan;100002.00;4993325;28;20654;-70
2022/04/05 00:14:02;;;;;;;0.20;0.20;;;8.70;99.90;;;8.96;nan;99999.91;4992033;28;20682;-70
2022/04/05 00:16:29;;;;;;;0.20;0.20;;;8.70;99.90;;;8.91;nan;100002.84;4992596;28;20610;-69
2022/04/05 00:18:56;;;;;;;0.20;0.20;;;8.60;99.90;;;8.94;nan;100002.63;4992408;28;21186;-70
2022/04/05 00:21:23;;;;;;;0.63;0.63;;;8.60;99.90;;;8.85;nan;99989.47;4990792;28;20674;-70
2022/04/05 00:23:50;;;;;;;0.20;0.20;;;8.60;99.90;;;8.78;nan;99983.88;4989642;28;21209;-71
2022/04/05 00:26:17;;;;;;;0.20;0.20;;;8.60;99.90;;;8.87;nan;99975.41;4992879;28;20683;-70
2022/04/05 00:28:44;;;;;;;0.20;0.20;;;8.70;99.90;;;8.85;nan;99972.09;4988943;28;20650;-70
2022/04/05 00:31:11;;;;;;;0.20;0.20;;;8.60;99.90;;;8.84;nan;99960.00;4979964;28;21069;-70
2022/04/05 00:33:38;;;;;;;0.20;0.20;;;8.60;99.90;;;8.78;nan;99964.84;4985058;28;20669;-70
2022/04/05 00:36:05;;;;;;;0.20;0.20;;;8.50;99.90;;;8.76;nan;99970.16;4983306;28;20604;-70
2022/04/05 00:38:32;;;;;;;0.20;0.20;;;8.50;99.90;;;8.80;nan;99955.16;4974516;28;20631;-70
2022/04/05 00:40:59;;;;;;;0.30;0.30;;;8.50;99.90;;;8.82;nan;99953.25;4972004;28;20663;-70
2022/04/05 00:43:26;;;;;;;0.20;0.20;;;8.50;99.90;;;8.89;nan;99963.09;4973089;28;21171;-70
2022/04/05 00:45:55;;;;;;;0.20;0.20;;;8.60;99.90;;;8.82;nan;99958.47;4977399;28;20739;-70
2022/04/05 00:48:51;;;;;;;0.20;0.20;;;8.60;99.90;;;8.71;nan;99955.84;4976988;28;20844;-70
2022/04/05 00:51:20;;;;;;;0.20;0.20;;;8.50;99.90;;;8.67;nan;99950.03;4984979;28;21023;-70
2022/04/05 00:53:51;;;;;;;0.30;0.30;;;8.40;99.90;;;8.73;nan;99967.78;4983680;28;20674;-71
2022/04/05 00:56:20;;;;;;;0.20;0.20;;;8.50;99.90;;;8.66;nan;99966.59;4972133;28;20634;-70
2022/04/05 00:58:52;;;;;;;0.20;0.20;;;8.50;99.90;;;8.73;nan;99961.78;4972250;28;20623;-72
2022/04/05 01:01:21;;;;;;;0.20;0.20;;;8.40;99.90;;;8.72;nan;99958.34;4977758;28;20662;-69
2022/04/05 01:03:51;;;;;;;0.20;0.20;;;8.50;99.90;;;8.82;nan;99961.91;4981742;28;20689;-69
2022/04/05 01:06:32;;;;;;;0.20;0.20;;;8.60;99.90;;;8.80;nan;99958.59;4981733;28;21061;-72
2022/04/05 01:08:59;;;;;;;2.20;2.10;;;8.60;99.90;;;8.76;nan;99951.97;4975225;28;20645;-71
2022/04/05 01:11:26;;;;;;;0.20;0.20;;;8.60;99.90;;;8.71;nan;99943.66;4970051;28;20663;-70
2022/04/05 01:13:53;;;;;;;0.20;0.20;;;8.50;99.90;;;8.69;nan;99940.34;4970094;28;21360;-69
2022/04/05 01:16:20;;;;;;;0.30;0.30;;;8.50;99.90;;;8.67;nan;99944.84;4991418;28;20634;-70
2022/04/05 01:18:48;;;;;;;0.20;0.20;;;8.40;99.90;;;8.65;nan;99944.13;4987766;28;20637;-71
2022/04/05 01:21:16;;;;;;;0.20;0.20;;;8.40;99.90;;;8.67;nan;99950.03;4982970;28;21080;-70
2022/04/05 01:24:05;;;;;;;0.20;0.20;;;8.40;99.90;;;8.70;nan;99944.63;4990771;28;20630;-70
2022/04/05 01:26:49;;;;;;;0.53;0.53;;;8.50;99.90;;;8.69;nan;99944.75;4991602;28;20668;-71
2022/04/05 01:29:20;;;;;;;0.20;0.20;;;8.50;99.90;;;8.58;nan;99950.75;4989992;28;20646;-73
2022/04/05 01:31:52;;;;;;;0.20;0.20;;;8.40;99.90;;;8.74;nan;99953.84;4991688;28;20999;-70
2022/04/05 01:34:22;;;;;;;0.20;0.20;;;8.50;99.90;;;8.62;nan;99953.94;4990467;28;20638;-70
2022/04/05 01:36:56;;;;;;;0.30;0.30;;;8.40;99.90;;;8.64;nan;99955.50;4989358;28;21057;-70
2022/04/05 01:39:26;;;;;;;0.20;0.20;;;8.40;99.90;;;8.69;nan;99952.53;4990239;28;20614;-71
2022/04/05 01:41:57;;;;;;;0.20;0.20;;;8.50;99.90;;;8.70;nan;99951.59;4989922;28;20216;-70
2022/04/05 01:44:26;;;;;;;0.20;0.20;;;8.40;99.90;;;8.59;nan;99940.22;4990113;28;20653;-70
2022/04/05 01:46:53;;;;;;;0.20;0.20;;;8.40;99.90;;;8.63;nan;99939.97;4983079;28;20643;-71
2022/04/05 01:49:21;;;;;;;0.20;0.20;;;8.40;99.90;;;8.69;nan;99944.75;4985757;28;21201;-71
2022/04/05 01:51:49;;;;;;;0.20;0.20;;;8.40;99.90;;;8.60;nan;99943.66;4989339;28;21035;-70
2022/04/05 01:54:18;;;;;;;0.20;0.20;;;8.40;99.90;;;8.69;nan;99948.16;4986924;28;20674;-70
2022/04/05 01:56:47;;;;;;;0.20;0.20;;;8.40;99.90;;;8.69;nan;99940.34;4972481;28;20646;-71
2022/04/05 01:59:18;;;;;;;0.20;0.20;;;8.40;99.90;;;8.60;nan;99931.47;4987978;28;20638;-72
2022/04/05 02:01:46;;;;;;;0.20;0.20;;;8.30;99.90;;;8.61;nan;99942.69;4985135;28;20710;-70
2022/04/05 02:04:14;;;;;;;0.20;0.20;;;8.40;99.90;;;8.63;nan;99921.78;4971898;28;21004;-70
2022/04/05 02:06:43;;;;;;;0.20;0.20;;;8.40;99.90;;;8.59;nan;99928.97;4989783;28;20599;-70
2022/04/05 02:09:14;;;;;;;0.20;0.20;;;8.40;99.90;;;8.59;nan;99934.19;4988134;28;20622;-67
2022/04/05 02:11:44;;;;;;;0.20;0.20;;;8.30;99.90;;;8.54;nan;99934.53;4991572;28;20658;-70
2022/04/05 02:14:12;;;;;;;0.20;0.20;;;8.40;99.90;;;8.64;nan;99941.66;4989099;28;20662;-72
2022/04/05 02:16:40;;;;;;;0.20;0.20;;;8.40;99.90;;;8.62;nan;99938.34;4989540;28;20635;-65
2022/04/05 02:19:07;;;;;;;0.20;0.20;;;8.40;99.90;;;8.56;nan;99947.44;4990925;28;21336;-71
2022/04/05 02:21:34;;;;;;;0.20;0.20;;;8.30;99.90;;;8.59;nan;99950.63;4990065;28;20665;-70
2022/04/05 02:24:01;;;;;;;0.20;0.20;;;8.30;99.90;;;8.63;nan;99945.19;4991063;28;21205;-70
2022/04/05 02:26:28;;;;;;;0.20;0.20;;;8.40;99.90;;;8.55;nan;99946.59;4989760;28;20642;-70
2022/04/05 02:28:55;;;;;;;0.20;0.20;;;8.30;99.90;;;8.60;nan;99954.06;4990924;28;21029;-70
2022/04/05 02:31:22;;;;;;;0.20;0.20;;;8.30;99.90;;;8.58;nan;99948.16;4986333;28;21241;-71
2022/04/05 02:33:49;;;;;;;0.20;0.20;;;8.40;99.90;;;8.60;nan;99948.84;4982472;28;20685;-70
2022/04/05 02:36:16;;;;;;;0.83;0.83;;;8.30;99.90;;;8.64;nan;99941.66;4989385;28;20624;-70
2022/04/05 02:38:43;;;;;;;0.20;0.20;;;8.40;99.90;;;8.60;nan;99946.25;4988523;28;20638;-66
2022/04/05 02:41:11;;;;;;;0.20;0.20;;;8.40;99.90;;;8.59;nan;99944.59;4991352;28;20654;-70
2022/04/05 02:43:38;;;;;;;0.20;0.20;;;8.30;99.90;;;8.59;nan;99945.41;4990148;28;20638;-70
2022/04/05 02:46:08;;;;;;;0.20;0.20;;;8.40;99.90;;;8.63;nan;99953.81;4989357;28;20662;-70
2022/04/05 02:48:35;;;;;;;0.20;0.20;;;8.40;99.90;;;8.59;nan;99948.03;4984376;28;20704;-70
2022/04/05 02:51:02;;;;;;;0.20;0.20;;;8.40;99.90;;;8.53;nan;99952.84;4973519;28;20658;-71
2022/04/05 02:53:29;;;;;;;0.30;0.30;;;8.30;99.90;;;8.58;nan;99953.34;4984130;28;20692;-70
2022/04/05 02:55:56;;;;;;;0.20;0.20;;;8.30;99.90;;;8.67;nan;99942.22;4981090;28;20615;-70
2022/04/05 02:58:23;;;;;;;0.20;0.20;;;8.50;99.90;;;8.62;nan;99936.56;4974840;28;20622;-70
2022/04/05 03:00:50;;;;;;;0.20;0.20;;;8.40;99.90;;;8.55;nan;99925.78;4975156;28;21119;-70
2022/04/05 03:03:17;;;;;;;0.20;0.20;;;8.30;99.90;;;8.47;nan;99930.75;4991781;28;20657;-71
2022/04/05 03:05:45;;;;;;;0.20;0.20;;;8.20;99.90;;;8.52;nan;99936.41;4992759;28;20630;-70
2022/04/05 03:08:12;;;;;;;0.20;0.20;;;8.30;99.90;;;8.56;nan;99940.44;4989579;28;20653;-71
2022/04/05 03:10:39;;;;;;;0.20;0.20;;;8.30;99.90;;;8.55;nan;99919.75;4993270;28;20634;-70
2022/04/05 03:13:07;;;;;;;0.20;0.20;;;8.30;99.90;;;8.55;nan;99928.41;4992966;28;20723;-70
2022/04/05 03:15:34;;;;;;;0.20;0.20;;;8.30;99.90;;;8.56;nan;99937.03;4992935;28;21114;-70
2022/04/05 03:18:01;;;;;;;0.20;0.20;;;8.30;99.90;;;8.61;nan;99934.91;4990996;28;21189;-70
2022/04/05 03:20:28;;;;;;;0.20;0.20;;;8.40;99.90;;;8.54;nan;99936.28;4991902;28;20634;-70
2022/04/05 03:22:56;;;;;;;0.20;0.20;;;8.30;99.90;;;8.54;nan;99934.53;4991050;28;21100;-71
2022/04/05 03:25:23;;;;;;;0.20;0.20;;;8.30;99.90;;;8.50;nan;99943.50;4992312;28;20621;-69
2022/04/05 03:27:51;;;;;;;0.20;0.20;;;8.30;99.90;;;8.51;nan;99939.97;4989008;28;20984;-72
2022/04/05 03:30:21;;;;;;;0.20;0.20;;;8.30;99.90;;;8.57;nan;99941.28;4979023;28;21007;-70
2022/04/05 03:32:48;;;;;;;0.20;0.20;;;8.30;99.90;;;8.55;nan;99938.78;4993157;28;20704;-70
2022/04/05 03:35:16;;;;;;;0.20;0.20;;;8.30;99.90;;;8.63;nan;99939.97;4989732;28;21038;-71
2022/04/05 03:37:43;;;;;;;0.20;0.20;;;8.40;99.90;;;8.59;nan;99936.78;4977096;28;20678;-70
2022/04/05 03:40:14;;;;;;;0.77;0.77;;;8.30;99.90;;;8.50;nan;99935.69;4974451;28;20675;-70
2022/04/05 03:42:41;;;;;;;0.20;0.20;;;8.30;99.90;;;8.56;nan;99929.22;4986308;28;20658;-68
2022/04/05 03:45:09;;;;;;;0.20;0.20;;;8.30;99.90;;;8.65;nan;99927.69;4991980;28;20863;-71
2022/04/05 03:47:36;;;;;;;0.20;0.20;;;8.40;99.90;;;8.52;nan;99925.19;4977808;28;20646;-70
2022/04/05 03:50:03;;;;;;;0.20;0.20;;;8.40;99.90;;;8.45;nan;99926.59;4974432;28;20643;-71
2022/04/05 03:52:30;;;;;;;0.20;0.20;;;8.30;99.90;;;8.38;nan;99930.59;4978011;28;21109;-71
2022/04/05 03:54:57;;;;;;;0.20;0.20;;;8.20;99.90;;;8.51;nan;99931.34;4991473;28;20662;-71
2022/04/05 03:57:24;;;;;;;0.20;0.20;;;8.20;99.90;;;8.43;nan;99929.28;4988246;28;21204;-70
2022/04/05 03:59:51;;;;;;;0.20;0.20;;;8.20;99.90;;;8.48;nan;99926.34;4992865;28;20630;-69
2022/04/05 04:02:18;;;;;;;0.20;0.20;;;8.30;99.90;;;8.49;nan;99922.81;4991450;28;20669;-70
2022/04/05 04:04:45;;;;;;;0.20;0.20;;;8.30;99.90;;;8.50;nan;99925.31;4973540;28;20607;-70
2022/04/05 04:07:12;;;;;;;0.20;0.20;;;8.30;99.90;;;8.48;nan;99927.19;4973190;28;20673;-70
2022/04/05 04:09:39;;;;;;;0.20;0.20;;;8.20;99.90;;;8.49;nan;99928.03;4977480;28;20650;-70
2022/04/05 04:12:06;;;;;;;0.20;0.20;;;8.20;99.90;;;8.46;nan;99934.28;4982032;28;20673;-70
2022/04/05 04:14:33;;;;;;;0.20;0.20;;;8.20;99.90;;;8.46;nan;99933.44;4970353;28;21047;-69
2022/04/05 04:17:00;;;;;;;0.20;0.20;;;8.30;99.90;;;8.45;nan;99929.19;4990481;28;20638;-70
2022/04/05 04:19:27;;;;;;;0.20;0.20;;;8.20;99.90;;;8.58;nan;99915.16;4991911;28;21041;-69
2022/04/05 04:21:54;;;;;;;0.20;0.20;;;8.30;99.90;;;8.58;nan;99914.34;4993093;28;21277;-70
2022/04/05 04:24:22;;;;;;;0.20;0.20;;;8.30;99.90;;;8.59;nan;99924.63;4990869;28;20683;-70
2022/04/05 04:26:49;;;;;;;0.20;0.20;;;8.40;99.90;;;8.57;nan;99925.66;4977367;28;20689;-71
2022/04/05 04:29:16;;;;;;;0.20;0.20;;;8.30;99.90;;;8.50;nan;99916.66;4974182;28;20634;-69
2022/04/05 04:31:43;;;;;;;0.20;0.20;;;8.30;99.90;;;8.58;nan;99922.13;4986644;28;20721;-70
2022/04/05 04:34:10;;;;;;;0.20;0.20;;;8.30;99.90;;;8.47;nan;99917.75;4985958;28;20662;-70
2022/04/05 04:36:37;;;;;;;0.20;0.20;;;8.20;99.90;;;8.56;nan;99917.03;4992607;28;20681;-70
2022/04/05 04:39:04;;;;;;;0.20;0.20;;;8.30;99.90;;;8.69;nan;99919.53;4989375;28;20623;-70
2022/04/05 04:41:31;;;;;;;0.20;0.20;;;8.40;99.90;;;8.56;nan;99916.22;4993184;28;20650;-70
2022/04/05 04:43:58;;;;;;;0.20;0.20;;;8.30;99.90;;;8.57;nan;99921.31;4975178;28;20631;-71
2022/04/05 04:46:25;;;;;;;0.20;0.20;;;8.30;99.90;;;8.58;nan;99925.53;4983358;28;21183;-70
2022/04/05 04:48:52;;;;;;;0.20;0.20;;;8.30;99.90;;;8.66;nan;99912.00;4977354;28;20623;-70
2022/04/05 04:51:19;;;;;;;0.20;0.20;;;8.40;99.90;;;8.65;nan;99904.28;4972522;28;20667;-70
2022/04/05 04:53:46;;;;;;;0.20;0.20;;;8.40;99.90;;;8.54;nan;99925.88;4990929;28;20673;-69
2022/04/05 04:56:13;;;;;;;0.20;0.20;;;8.30;99.90;;;8.55;nan;99932.75;4986810;28;20618;-69
2022/04/05 04:58:40;;;;;;;0.20;0.20;;;8.30;99.90;;;8.65;nan;99925.91;4979814;28;21210;-70
2022/04/05 05:01:08;;;;;;;0.20;0.20;;;8.40;99.90;;;8.67;nan;99915.44;4976906;28;20669;-70
2022/04/05 05:03:35;;;;;;;0.20;0.20;;;8.40;99.90;;;8.57;nan;99915.28;4982339;28;20607;-66
2022/04/05 05:06:03;;;;;;;0.20;0.20;;;8.40;99.90;;;8.52;nan;99912.19;4983492;28;20646;-70
2022/04/05 05:08:31;;;;;;;0.20;0.20;;;8.30;99.90;;;8.53;nan;99917.28;4971617;28;20631;-70
2022/04/05 05:10:58;;;;;;;0.20;0.20;;;8.30;99.90;;;8.52;nan;99913.00;4984757;28;20666;-69
2022/04/05 05:13:25;;;;;;;0.20;0.20;;;8.20;99.90;;;8.51;nan;99913.97;4991498;28;20626;-71
2022/04/05 05:15:53;;;;;;;0.20;0.20;;;8.30;99.90;;;8.42;nan;99912.03;4987542;28;21181;-67
2022/04/05 05:18:19;;;;;;;0.20;0.20;;;8.20;99.90;;;8.40;nan;99916.53;4977198;28;20615;-70
2022/04/05 05:20:46;;;;;;;0.20;0.20;;;8.20;99.90;;;8.47;nan;99917.75;4988775;28;21248;-70
2022/04/05 05:23:13;;;;;;;0.20;0.20;;;8.20;99.90;;;8.36;nan;99915.09;4982492;28;20647;-73
2022/04/05 05:25:40;;;;;;;0.20;0.20;;;8.20;99.90;;;8.42;nan;99906.84;4978096;28;20674;-69
2022/04/05 05:28:07;;;;;;;0.30;0.30;;;8.20;99.90;;;8.49;nan;99917.63;4971887;28;21191;-70
2022/04/05 05:30:34;;;;;;;0.20;0.20;;;8.20;99.90;;;8.51;nan;99921.78;4972033;28;20640;-70
2022/04/05 05:33:01;;;;;;;0.20;0.20;;;8.20;99.90;;;8.43;nan;99913.69;4985327;28;20641;-70
2022/04/05 05:35:29;;;;;;;0.20;0.20;;;8.20;99.90;;;8.38;nan;99918.41;4987126;28;20671;-70
2022/04/05 05:37:56;;;;;;;0.20;0.20;;;8.20;99.90;;;8.38;nan;99925.38;4972374;28;20630;-72
2022/04/05 05:40:23;;;;;;;0.20;0.20;;;8.20;99.90;;;8.44;nan;99920.56;4971860;28;20219;-70
2022/04/05 05:43:01;;;;;;;0.30;0.30;;;8.20;99.90;;;8.46;nan;99925.63;4971627;28;21230;-70
2022/04/05 05:45:32;;;;;;;0.20;0.20;;;8.20;99.90;;;8.42;nan;99927.66;4970172;28;20971;-70
2022/04/05 05:48:00;;;;;;;0.20;0.20;;;8.30;99.90;;;8.40;nan;99928.69;4983752;28;20631;-71
2022/04/05 05:50:27;;;;;;;0.20;0.20;;;8.10;99.90;;;8.48;nan;99926.34;4988518;28;21181;-70
2022/04/05 05:52:55;;;;;;;0.20;0.20;;;8.20;99.90;;;8.50;nan;99925.31;4977110;28;21222;-69
2022/04/05 05:55:26;;;;;;;0.20;0.20;;;8.20;99.90;;;8.52;nan;99933.81;4991297;28;20658;-70
2022/04/05 05:57:53;;;;;;;0.20;0.20;;;8.20;99.90;;;8.52;nan;99940.78;4974533;28;20678;-69
2022/04/05 06:00:22;;;;;;;0.20;0.20;;;8.20;99.90;;;8.48;nan;99947.97;4972981;28;20682;-69
2022/04/05 06:02:58;;;;;;;0.20;0.20;;;8.30;99.90;;;8.53;nan;99953.69;4990218;28;20646;-70
2022/04/05 06:05:26;;;;;;;0.20;0.20;;;8.30;99.90;;;8.50;nan;99963.47;4987537;28;20601;-70
2022/04/05 06:07:53;;;;;;;0.20;0.20;;;8.30;99.90;;;8.46;nan;99957.66;4990573;28;20598;-69
2022/04/05 06:10:20;;;;;;;0.20;0.20;;;8.20;99.90;;;8.42;nan;99965.81;4991049;28;20634;-71
2022/04/05 06:12:49;;;;;;;0.20;0.20;;;8.20;99.90;;;8.38;nan;99960.00;4987637;28;20678;-69
2022/04/05 06:15:19;;;;;;;0.20;0.20;;;8.20;99.90;;;8.52;nan;99975.41;4989261;28;20663;-71
2022/04/05 06:17:48;;;;;;;0.20;0.20;;;8.30;99.90;;;8.48;nan;99968.78;4988612;28;20623;-69
2022/04/05 06:20:17;;;;;;;0.20;0.20;;;8.20;99.90;;;8.51;nan;99978.13;4989052;28;20688;-69
2022/04/05 06:22:47;;;;;;;0.30;0.30;;;8.30;99.90;;;8.53;nan;99986.66;4979025;28;20662;-69
2022/04/05 06:25:24;;;;;;;0.57;0.57;;;8.40;99.90;;;8.59;nan;99979.22;4985859;28;20626;-69
2022/04/05 06:27:51;;;;;;;0.20;0.20;;;8.30;99.90;;;8.50;nan;99979.91;4994895;28;20634;-69
2022/04/05 06:30:19;;;;;;;0.20;0.20;;;8.30;99.90;;;8.54;nan;99977.88;4995654;28;20748;-68
2022/04/05 06:32:50;;;;;;;0.20;0.20;;;8.30;99.90;;;8.59;nan;99973.19;4986728;28;21248;-69
2022/04/05 06:35:17;;;;;;;0.20;0.20;;;8.40;99.90;;;8.68;nan;99975.13;4991424;28;21241;-70
2022/04/05 06:37:45;;;;;;;0.20;0.20;;;8.40;99.90;;;8.75;nan;99968.53;4987040;28;21198;-69
2022/04/05 06:40:15;;;;;;;0.20;0.20;;;8.50;99.90;;;8.76;nan;99977.97;4974683;28;20627;-69
2022/04/05 06:42:45;;;;;;;0.20;0.20;;;8.50;99.90;;;8.75;nan;99978.94;4975485;28;20709;-69
2022/04/05 06:45:19;;;;;;;0.20;0.20;;;8.60;99.90;;;8.69;nan;99986.34;4974427;28;20603;-69
2022/04/05 06:47:47;;;;;;;0.20;0.20;;;8.50;99.90;;;8.68;nan;99988.13;4980077;28;20631;-70
2022/04/05 06:50:20;;;;;;;0.37;0.37;;;8.50;99.90;;;8.74;nan;99992.84;4988354;28;20626;-69
2022/04/05 06:52:47;;;;;;;0.20;0.20;;;8.50;99.90;;;8.65;nan;99992.69;4979933;28;20658;-69
2022/04/05 06:55:14;;;;;;;0.20;0.20;;;8.50;99.90;;;8.80;nan;99994.16;4979434;28;20665;-69
2022/04/05 06:57:42;;;;;;;0.20;0.20;;;8.50;99.90;;;8.74;nan;99994.63;4966117;28;20615;-67
2022/04/05 07:00:12;;;;;;;0.20;0.20;;;8.50;99.90;;;8.76;nan;99993.56;4982663;28;20684;-73
2022/04/05 07:02:40;;;;;;;0.20;0.20;;;8.50;99.90;;;8.73;nan;99987.78;4983781;28;21283;-69
2022/04/05 07:05:09;;;;;;;0.20;0.20;;;8.60;99.90;;;8.71;nan;99980.06;4994018;28;20602;-71
2022/04/05 07:07:38;;;;;;;0.20;0.20;;;8.50;99.90;;;8.69;nan;99994.97;4992037;28;20665;-69
2022/04/05 07:10:07;;;;;;;0.20;0.20;;;8.50;99.90;;;8.76;nan;99993.56;4994498;28;20609;-67
2022/04/05 07:12:35;;;;;;;0.20;0.20;;;8.60;99.90;;;8.76;nan;99995.34;4992633;28;20646;-67
2022/04/05 07:15:03;;;;;;;0.97;0.97;;;8.60;99.90;;;8.83;nan;100002.59;4971322;28;20702;-69
2022/04/05 07:17:30;;;;;;;0.20;0.20;;;8.60;99.90;;;8.76;nan;99998.78;4987450;28;21247;-72
2022/04/05 07:20:17;;;;;;;0.20;0.20;;;8.60;99.90;;;9.00;nan;100002.16;4992351;28;20622;-70
2022/04/05 07:22:48;;;;;;;0.20;0.20;;;8.80;99.90;;;8.97;nan;100001.53;4982272;28;20662;-69
2022/04/05 07:25:20;;;;;;;0.30;0.30;;;8.70;99.90;;;8.82;nan;100006.13;4984589;28;20995;-69
2022/04/05 07:27:49;;;;;;;0.20;0.20;;;8.70;99.90;;;8.89;nan;100009.09;4985780;28;20603;-70
2022/04/05 07:30:17;;;;;;;0.20;0.20;;;8.70;99.90;;;8.94;nan;99993.97;4993624;28;20638;-69
2022/04/05 07:32:46;;;;;;;0.20;0.20;;;8.80;99.90;;;8.93;nan;100007.91;4986706;28;20670;-69
2022/04/05 07:35:14;;;;;;;0.20;0.20;;;8.70;99.90;;;8.93;nan;100000.94;4985449;28;20650;-70
2022/04/05 07:37:42;;;;;;;0.20;0.20;;;8.70;99.90;;;8.83;nan;99997.38;4988713;28;20635;-71
2022/04/05 07:40:10;;;;;;;0.73;0.73;;;8.70;99.90;;;8.92;nan;99998.47;4977788;28;20645;-69
2022/04/05 07:42:44;;;;;;;0.20;0.20;;;8.70;99.90;;;8.98;nan;100004.03;4989756;28;21264;-69
2022/04/05 07:45:13;;;;;;;0.20;0.20;;;8.70;99.90;;;9.04;nan;100000.13;4989806;28;20586;-69
2022/04/05 07:47:41;;;;;;;0.20;0.20;;;8.80;99.90;;;9.04;nan;99998.38;4976121;28;20654;-70
2022/04/05 07:50:10;;;;;;;0.20;0.20;;;8.80;99.90;;;9.07;nan;100005.94;4984435;28;20765;-70
2022/04/05 07:52:37;;;;;;;0.20;0.20;;;8.90;99.90;;;8.98;nan;100008.41;4985788;28;20667;-68
2022/04/05 07:55:05;;;;;;;0.20;0.20;;;8.80;99.90;;;9.03;nan;100006.31;4978111;28;20675;-70
2022/04/05 07:57:34;;;;;;;0.20;0.20;;;8.90;99.90;;;8.99;nan;100005.69;4982263;28;20634;-69
2022/04/05 08:00:02;;;;;;;1.47;1.17;;;8.80;99.90;;;8.99;nan;100005.69;4983778;28;20693;-71
2022/04/05 08:02:29;;;;;;;0.20;0.20;;;8.90;99.90;;;9.02;nan;100002.88;4988724;28;20670;-69
2022/04/05 08:05:01;;;;;;;0.20;0.20;;;8.80;99.90;;;9.10;nan;100010.09;4978875;28;20621;-71
2022/04/05 08:07:28;;;;;;;0.20;0.20;;;8.90;99.90;;;9.13;nan;100002.06;4971692;28;21031;-68
2022/04/05 08:09:57;;;;;;;0.20;0.20;;;8.90;99.90;;;9.06;nan;100012.09;4978316;28;20696;-66
2022/04/05 08:12:24;;;;;;;0.20;0.20;;;8.90;99.90;;;9.03;nan;100006.31;4993010;28;20657;-70
2022/04/05 08:14:50;;;;;;;0.20;0.20;;;8.90;99.90;;;9.13;nan;100013.31;4992330;28;20658;-68
2022/04/05 08:17:17;;;;;;;0.20;0.20;;;8.90;99.90;;;9.26;nan;100013.19;4976329;28;21087;-70
2022/04/05 08:19:44;;;;;;;0.60;0.60;;;9.10;99.90;;;9.11;nan;100009.16;4984537;28;20646;-68
2022/04/05 08:22:11;;;;;;;0.20;0.20;;;9.00;99.90;;;8.89;nan;100015.13;4974843;28;21473;-69
2022/04/05 08:24:38;;;;;;;0.20;0.20;;;8.80;99.90;;;8.72;nan;100020.75;4970149;28;20647;-64
2022/04/05 08:27:05;;;;;;;0.20;0.20;;;8.60;99.90;;;8.71;nan;100019.09;4972100;28;21016;-68
2022/04/05 08:29:39;;;;;;;0.50;0.50;;;8.60;99.90;;;8.85;nan;100021.50;4980339;28;20650;-69
2022/04/05 08:32:07;;;;;;;0.20;0.20;;;8.60;99.90;;;8.80;nan;100021.00;4989505;28;20665;-68
2022/04/05 08:34:35;;;;;;;0.20;0.20;;;8.60;99.90;;;8.82;nan;100024.31;4990605;28;20673;-71
2022/04/05 08:37:02;;;;;;;0.20;0.20;;;8.60;99.90;;;8.56;nan;100031.44;4990064;28;20641;-68
2022/04/05 08:39:29;;;;;;;0.20;0.20;;;8.60;99.90;;;8.42;nan;100023.81;4992034;28;20625;-69
2022/04/05 08:41:57;;;;;;;0.20;0.20;;;8.40;99.90;;;8.31;nan;100025.53;4992115;28;20707;-68
2022/04/05 08:44:24;;;;;;;0.30;0.30;;;8.30;99.90;;;8.33;nan;100018.44;4988234;28;20688;-69
2022/04/05 08:46:52;;;;;;;0.20;0.20;;;8.20;99.90;;;8.51;nan;100030.97;4983206;28;20618;-67
2022/04/05 08:49:20;;;;;;;0.20;0.20;;;8.30;99.90;;;8.40;nan;100028.31;4979083;28;21200;-67
2022/04/05 08:51:48;;;;;;;0.20;0.20;;;8.30;99.90;;;8.28;nan;100025.78;4977552;28;20661;-69
2022/04/05 08:54:15;;;;;;;0.20;0.20;;;8.20;99.90;;;8.38;nan;100026.75;4980419;28;20646;-68
2022/04/05 08:56:42;;;;;;;0.77;0.77;;;8.30;99.90;;;8.48;nan;100025.13;4987097;28;21137;-69
2022/04/05 08:59:09;;;;;;;0.20;0.20;;;8.30;99.90;;;8.36;nan;100020.84;4976678;28;20647;-69
2022/04/05 09:01:36;;;;;;;0.20;0.20;;;8.20;99.90;;;8.48;nan;100019.94;4980305;28;20643;-68
2022/04/05 09:04:04;;;;;;;0.20;0.20;;;8.30;99.90;;;8.63;nan;100023.19;4969630;28;20615;-70
2022/04/05 09:06:34;;;;;;;0.20;0.20;;;8.40;99.90;;;8.54;nan;100022.09;4971342;28;20208;-72
2022/04/05 09:09:17;;;;;;;0.20;0.20;;;8.40;99.90;;;8.68;nan;100028.88;4970970;28;21378;-72
2022/04/05 09:11:54;;;;;;;0.20;0.20;;;8.50;99.90;;;8.69;nan;100027.97;4973339;28;21244;-70
2022/04/05 09:14:29;;;;;;;0.20;0.20;;;8.50;99.90;;;8.69;nan;100030.56;4988004;28;20637;-69
2022/04/05 09:17:07;;;;;;;0.20;0.20;;;8.50;99.90;;;8.70;nan;100029.59;4986641;28;20680;-71
2022/04/05 09:19:45;;;;;;;0.20;0.20;;;8.50;99.90;;;8.81;nan;100034.84;4989886;28;20194;-72
2022/04/05 09:22:13;;;;;;;0.20;0.20;;;8.60;99.90;;;8.76;nan;100039.56;4990552;28;20669;-71
2022/04/05 09:24:44;;;;;;;0.20;0.20;;;8.60;99.90;;;8.83;nan;100028.59;4987625;28;20646;-70
2022/04/05 09:27:12;;;;;;;0.20;0.20;;;8.60;99.90;;;8.78;nan;100032.47;4992344;28;20593;-70
2022/04/05 09:29:47;;;;;;;0.20;0.20;;;8.60;99.90;;;8.98;nan;100030.06;4971009;28;20651;-70
2022/04/05 09:32:40;;;;;;;0.20;0.20;;;8.80;99.90;;;8.92;nan;100043.50;4980910;28;21049;-72
2022/04/05 09:35:08;;;;;;;0.20;0.20;;;8.70;99.90;;;8.93;nan;100032.16;4981025;28;21596;-70
2022/04/05 09:37:38;;;;;;;0.20;0.20;;;8.70;99.90;;;8.96;nan;100031.94;4989960;28;20630;-67
2022/04/05 09:40:24;;;;;;;0.20;0.20;;;8.70;99.90;;;8.77;nan;100036.84;4992177;28;20680;-70
2022/04/05 09:43:13;;;;;;;0.20;0.20;;;8.70;99.90;;;8.85;nan;100044.09;4990822;28;21214;-70
2022/04/05 09:46:00;;;;;;;0.20;0.20;;;8.60;99.90;;;8.88;nan;100038.66;4987294;28;20689;-69
2022/04/05 09:48:34;;;;;;;0.20;0.20;;;8.70;99.90;;;8.92;nan;100034.91;4980771;28;20618;-71
2022/04/05 09:51:10;;;;;;;0.20;0.20;;;8.70;99.90;;;8.82;nan;100029.53;4971647;28;20655;-71
2022/04/05 09:53:46;;;;;;;0.20;0.20;;;8.70;99.90;;;8.96;nan;100033.72;4978374;28;20704;-67
2022/04/05 09:56:38;;;;;;;0.20;0.20;;;8.70;99.90;;;8.99;nan;100025.66;4981482;28;20706;-69
2022/04/05 09:59:16;;;;;;;0.20;0.20;;;8.80;99.90;;;9.04;nan;100021.78;4985320;28;20999;-70
2022/04/05 10:01:45;;;;;;;0.20;0.20;;;8.90;99.90;;;9.11;nan;100019.56;4978665;28;21019;-71
2022/04/05 10:04:17;;;;;;;0.70;0.70;;;9.00;99.90;;;9.31;nan;100026.66;4990262;28;20617;-72
2022/04/05 10:06:47;;;;;;;0.20;0.20;;;9.10;99.90;;;9.40;nan;100033.78;4988280;28;20626;-71
2022/04/05 10:09:18;;;;;;;0.20;0.20;;;9.30;99.90;;;9.54;nan;100027.53;4991485;28;21399;-70
2022/04/05 10:11:46;;;;;;;0.20;0.20;;;9.40;99.90;;;9.65;nan;100030.13;4986336;28;21255;-71
2022/04/05 10:14:20;;;;;;;0.20;0.20;;;9.50;99.90;;;9.78;nan;100034.25;4971666;28;20626;-69
2022/04/05 10:16:49;;;;;;;0.20;0.20;;;9.60;99.90;;;9.94;nan;100037.34;4973678;28;20662;-70
2022/04/05 10:19:19;;;;;;;0.20;0.20;;;9.80;99.90;;;10.09;nan;100048.34;4972402;28;20649;-71
2022/04/05 10:21:48;;;;;;;0.20;0.20;;;9.90;99.90;;;10.14;nan;100044.44;4969581;28;21046;-72
2022/04/05 10:24:16;;;;;;;0.20;0.20;;;10.00;99.90;;;10.20;nan;100037.91;4982540;28;20653;-73
2022/04/05 10:26:49;;;;;;;0.20;0.20;;;10.10;99.90;;;10.35;nan;100041.09;4974407;28;20638;-73
2022/04/05 10:29:18;;;;;;;0.20;0.20;;;10.20;99.90;;;10.48;nan;100050.38;4990917;28;20614;-71
2022/04/05 10:31:58;;;;;;;0.20;0.20;;;10.30;99.90;;;10.51;nan;100057.97;4985812;28;20677;-71
2022/04/05 10:34:42;;;;;;;0.20;0.20;;;10.40;99.90;;;10.64;nan;100058.66;4971215;28;20674;-72
2022/04/05 10:37:17;;;;;;;0.20;0.20;;;10.40;99.90;;;10.60;nan;100057.25;4970453;28;20638;-71
2022/04/05 10:40:10;;;;;;;0.20;0.20;;;10.50;99.90;;;10.57;nan;100047.03;4970783;28;20622;-71
2022/04/05 10:42:43;;;;;;;0.20;0.20;;;10.50;99.90;;;10.78;nan;100057.50;4982392;28;21083;-68
2022/04/05 10:45:16;;;;;;;0.20;0.20;;;10.60;99.90;;;10.79;nan;100052.19;4990004;28;21028;-70
2022/04/05 10:48:25;;;;;;;0.20;0.20;;;10.70;99.90;;;10.87;nan;100051.53;4986859;28;20635;-65
2022/04/05 10:51:01;;;;;;;0.20;0.20;;;10.70;99.90;;;10.64;nan;100043.00;4986646;28;21251;-72
2022/04/05 10:53:40;;;;;;;0.20;0.20;;;10.50;99.90;;;10.65;nan;100044.63;4988006;28;21286;-71
2022/04/05 10:56:10;;;;;;;0.20;0.20;;;10.50;99.90;;;10.70;nan;100037.28;4975282;28;20655;-70